Time;durP1;ratioP1;P1;durP2;ratioP2;P2;SDS_P1;SDS_P2;PMS_P1;PMS_P2;Temp;Humidity;BMP_temperature;BMP_pressure;BME280_temperature;BME280_humidity;BME280_pressure;Samples;Min_cycle;Max_cycle;Signal;HPM_P1;HPM_P2
2021/06/10 00:01:46;;;;;;;9.33;4.67;;;;;;;16.33;74.90;100591.17;2646585;90;21085;-62
2021/06/10 00:05:48;;;;;;;7.78;5.60;;;;;;;16.27;75.01;100591.30;2647023;90;21071;-63
2021/06/10 00:09:50;;;;;;;5.62;4.15;;;;;;;16.18;75.04;100592.24;2647038;90;21076;-62
2021/06/10 00:13:52;;;;;;;7.37;6.47;;;;;;;16.13;75.26;100600.27;2646852;90;21049;-62
2021/06/10 00:17:54;;;;;;;5.67;4.53;;;;;;;16.08;75.28;100592.33;2647099;89;21097;-62
2021/06/10 00:21:55;;;;;;;9.23;5.58;;;;;;;16.05;75.30;100596.16;2646770;90;21101;-61
2021/06/10 00:25:57;;;;;;;7.03;4.87;;;;;;;15.97;75.18;100602.28;2647056;90;21061;-62
2021/06/10 00:30:00;;;;;;;8.48;5.58;;;;;;;15.91;75.50;100604.25;2646810;90;21077;-61
2021/06/10 00:34:03;;;;;;;9.03;5.40;;;;;;;15.84;75.65;100606.66;2646817;89;21085;-62
2021/06/10 00:38:05;;;;;;;9.60;5.10;;;;;;;15.81;75.88;100609.66;2646699;90;21113;-61
2021/06/10 00:42:09;;;;;;;5.60;4.80;;;;;;;15.79;75.66;100600.92;2653782;87;21612;-61
2021/06/10 00:46:11;;;;;;;5.87;5.28;;;;;;;15.73;75.63;100601.54;2727255;86;21076;-61
2021/06/10 00:50:16;;;;;;;5.50;4.92;;;;;;;15.68;75.79;100598.45;2752220;86;21059;-61
2021/06/10 00:54:17;;;;;;;7.20;6.15;;;;;;;15.67;75.96;100598.09;2752356;86;21016;-62
2021/06/10 00:58:20;;;;;;;11.35;7.42;;;;;;;15.68;75.98;100599.78;2752239;86;21071;-62
2021/06/10 01:02:22;;;;;;;8.23;5.97;;;;;;;15.63;75.87;100599.41;2752228;86;21568;-63
2021/06/10 01:06:31;;;;;;;9.48;7.03;;;;;;;15.60;76.08;100605.08;2752099;86;21067;-61
2021/06/10 01:10:54;;;;;;;9.15;6.20;;;;;;;15.55;76.18;100610.88;2752264;86;21043;-62
2021/06/10 01:15:14;;;;;;;11.83;6.85;;;;;;;15.50;76.50;100606.48;2752376;86;21075;-61
2021/06/10 01:19:43;;;;;;;7.67;6.78;;;;;;;15.44;76.35;100606.58;2752285;86;21604;-61
2021/06/10 01:24:28;;;;;;;9.48;6.65;;;;;;;15.38;76.44;100605.33;2752207;86;21075;-62
2021/06/10 01:28:34;;;;;;;7.55;6.40;;;;;;;15.36;76.74;100601.12;2752173;86;22218;-62
2021/06/10 01:32:41;;;;;;;8.73;7.67;;;;;;;15.32;77.14;100599.23;2712533;86;21099;-62
2021/06/10 01:36:46;;;;;;;10.32;7.10;;;;;;;15.31;77.50;100600.71;2693751;88;21055;-62
2021/06/10 01:40:49;;;;;;;11.55;9.10;;;;;;;15.32;77.27;100601.91;2694689;88;21031;-61
2021/06/10 01:44:52;;;;;;;7.40;6.65;;;;;;;15.31;76.96;100602.05;2694538;88;21119;-61
2021/06/10 01:48:57;;;;;;;9.28;6.15;;;;;;;15.30;76.76;100605.72;2694655;88;21079;-61
2021/06/10 01:53:01;;;;;;;10.55;6.72;;;;;;;15.22;76.98;100600.63;2709765;87;21070;-62
2021/06/10 01:57:05;;;;;;;8.13;6.83;;;;;;;15.16;77.21;100604.39;2709479;87;21058;-62
2021/06/10 02:01:07;;;;;;;9.88;6.70;;;;;;;15.16;77.40;100596.34;2709703;87;21067;-61
2021/06/10 02:05:12;;;;;;;11.97;7.28;;;;;;;15.14;77.46;100592.50;2709301;87;21591;-62
2021/06/10 02:09:15;;;;;;;7.83;6.22;;;;;;;15.10;77.49;100588.41;2709679;87;21055;-61
2021/06/10 02:13:20;;;;;;;8.53;6.35;;;;;;;15.09;77.47;100596.09;2709470;87;21114;-62
2021/06/10 02:17:21;;;;;;;8.10;6.17;;;;;;;15.05;77.49;100593.37;2608612;90;21517;-61
2021/06/10 02:21:23;;;;;;;8.00;6.70;;;;;;;15.04;77.34;100593.02;2608595;91;21064;-62
2021/06/10 02:25:25;;;;;;;9.73;6.28;;;;;;;14.99;77.02;100597.47;2608299;91;21139;-62
2021/06/10 02:29:27;;;;;;;7.80;5.53;;;;;;;14.96;77.25;100594.61;2608323;91;21083;-61
2021/06/10 02:33:29;;;;;;;7.72;5.50;;;;;;;14.92;77.43;100595.88;2608135;91;21079;-61
2021/06/10 02:37:31;;;;;;;10.30;5.67;;;;;;;14.89;76.96;100590.81;2608216;91;21032;-62
2021/06/10 02:41:35;;;;;;;6.58;5.53;;;;;;;14.88;77.18;100586.96;2608136;91;21087;-62
2021/06/10 02:45:38;;;;;;;7.28;6.15;;;;;;;14.86;76.99;100591.11;2608320;91;21072;-61
2021/06/10 02:49:45;;;;;;;10.95;6.28;;;;;;;14.73;76.84;100591.92;2609077;91;21541;-61
2021/06/10 02:53:49;;;;;;;5.97;4.85;;;;;;;14.67;77.06;100588.81;2695215;88;21051;-61
2021/06/10 02:57:55;;;;;;;10.35;6.25;;;;;;;14.66;77.20;100592.99;2695182;88;21112;-62
2021/06/10 03:01:57;;;;;;;8.15;4.80;;;;;;;14.65;77.14;100593.47;2695115;88;21604;-61
2021/06/10 03:06:02;;;;;;;7.50;4.53;;;;;;;14.65;77.44;100591.30;2695301;88;21084;-62
2021/06/10 03:10:08;;;;;;;10.45;6.03;;;;;;;14.62;77.22;100599.12;2695252;88;21079;-61
2021/06/10 03:14:11;;;;;;;;;;;;;;;14.62;78.14;100600.45;2697803;87;21071;-63
2021/06/10 03:18:14;;;;;;;6.05;5.45;;;;;;;14.65;78.15;100594.81;2695060;88;20131;-61
2021/06/10 03:22:16;;;;;;;7.60;5.62;;;;;;;14.68;78.39;100592.35;2695306;87;21087;-62
2021/06/10 03:26:21;;;;;;;8.65;6.55;;;;;;;14.75;78.79;100585.95;2695161;87;21051;-62
2021/06/10 03:30:23;;;;;;;5.45;4.62;;;;;;;14.80;78.60;100590.37;2695607;88;21079;-61
2021/06/10 03:34:27;;;;;;;23.05;8.55;;;;;;;14.85;79.01;100578.72;2672032;88;21040;-61
2021/06/10 03:38:30;;;;;;;7.28;6.50;;;;;;;14.92;79.48;100580.31;2695405;87;21044;-62
2021/06/10 03:42:33;;;;;;;10.98;6.75;;;;;;;14.98;79.98;100588.61;2695501;88;21140;-61
2021/06/10 03:46:35;;;;;;;13.85;5.60;;;;;;;15.07;80.12;100589.56;2661317;88;21068;-61
2021/06/10 03:50:38;;;;;;;13.72;7.22;;;;;;;15.18;80.25;100588.52;2670396;89;21036;-61
2021/06/10 03:54:39;;;;;;;10.95;7.47;;;;;;;15.35;80.38;100588.72;2670162;89;21069;-61
2021/06/10 03:58:41;;;;;;;30.08;9.80;;;;;;;15.48;80.41;100585.16;2670112;89;21032;-62
2021/06/10 04:02:43;;;;;;;9.25;7.28;;;;;;;15.58;79.87;100584.27;2670233;89;21526;-61
2021/06/10 04:06:46;;;;;;;9.83;7.00;;;;;;;15.55;79.66;100604.18;2670333;89;21064;-62
2021/06/10 04:10:48;;;;;;;10.25;6.45;;;;;;;15.56;79.53;100617.45;2670552;89;21000;-62
2021/06/10 04:14:50;;;;;;;10.93;7.28;;;;;;;15.55;79.03;100635.88;2670469;88;21025;-61
2021/06/10 04:18:53;;;;;;;8.83;7.03;;;;;;;15.42;80.10;100629.49;2670332;89;21572;-61
2021/06/10 04:22:54;;;;;;;8.50;7.55;;;;;;;15.44;81.21;100636.57;2670666;89;21036;-61
2021/06/10 04:26:56;;;;;;;16.73;8.20;;;;;;;15.42;82.29;100616.60;2670528;88;21072;-60
2021/06/10 04:30:59;;;;;;;16.40;8.73;;;;;;;15.40;83.89;100609.21;2670738;89;21033;-59
2021/06/10 04:35:03;;;;;;;10.28;7.10;;;;;;;15.48;85.04;100609.80;2670755;88;21052;-60
2021/06/10 04:39:05;;;;;;;9.63;7.72;;;;;;;15.67;85.04;100593.59;2670814;89;21064;-60
2021/06/10 04:43:07;;;;;;;8.80;7.17;;;;;;;15.84;85.39;100586.55;2665803;87;21103;-61
2021/06/10 04:47:09;;;;;;;9.33;7.62;;;;;;;15.98;84.75;100583.02;2651387;89;21095;-62
2021/06/10 04:51:11;;;;;;;7.80;7.03;;;;;;;16.09;84.98;100584.11;2651609;89;21092;-61
2021/06/10 04:55:14;;;;;;;12.70;7.75;;;;;;;16.19;85.07;100566.57;2650885;89;21095;-61
2021/06/10 04:59:15;;;;;;;8.15;7.12;;;;;;;16.35;85.34;100572.58;2651657;89;21068;-61
2021/06/10 05:03:21;;;;;;;12.50;7.10;;;;;;;16.48;84.51;100569.97;2651268;89;22233;-61
2021/06/10 05:07:21;;;;;;;9.83;5.60;;;;;;;16.73;84.64;100574.17;2651357;89;21715;-61
2021/06/10 05:11:22;;;;;;;10.05;7.62;;;;;;;16.93;83.33;100574.27;2651789;89;21104;-61
2021/06/10 05:15:24;;;;;;;9.10;6.55;;;;;;;17.06;83.91;100575.69;2651316;89;21079;-62
2021/06/10 05:19:27;;;;;;;7.25;5.70;;;;;;;17.30;83.34;100574.95;2651450;89;21683;-61
2021/06/10 05:23:29;;;;;;;9.05;7.08;;;;;;;17.44;83.46;100573.47;2651509;89;21095;-62
2021/06/10 05:27:33;;;;;;;8.80;7.70;;;;;;;17.70;83.68;100578.73;2651648;89;21083;-62
2021/06/10 05:31:35;;;;;;;11.40;6.97;;;;;;;17.97;83.37;100574.57;2651909;89;21071;-61
2021/06/10 05:35:36;;;;;;;6.65;5.85;;;;;;;18.34;84.09;100565.17;2651834;89;21087;-61
2021/06/10 05:39:38;;;;;;;14.85;6.65;;;;;;;18.77;83.79;100558.19;2651812;89;21047;-62
2021/06/10 05:43:40;;;;;;;35.30;28.25;;;;;;;19.09;81.70;100563.66;2651797;89;22281;-62
2021/06/10 05:47:42;;;;;;;18.10;13.70;;;;;;;19.67;81.09;100558.77;2651850;89;21108;-62
2021/06/10 05:51:44;;;;;;;10.10;6.28;;;;;;;20.75;83.56;100544.33;2652214;88;21052;-63
2021/06/10 05:55:46;;;;;;;7.58;5.67;;;;;;;21.72;78.11;100538.84;2652333;89;21095;-62
2021/06/10 05:59:48;;;;;;;8.08;4.87;;;;;;;22.35;74.55;100534.03;2652548;89;21080;-61
2021/06/10 06:03:50;;;;;;;7.97;6.28;;;;;;;22.99;70.89;100544.01;2652824;89;21585;-62
2021/06/10 06:07:52;;;;;;;11.35;5.75;;;;;;;23.65;68.59;100539.88;2653063;89;21043;-62
2021/06/10 06:11:55;;;;;;;5.55;5.05;;;;;;;24.09;66.04;100534.92;2631726;89;21056;-62
2021/06/10 06:16:02;;;;;;;6.78;4.83;;;;;;;24.37;64.96;100530.61;2653575;89;21068;-62
2021/06/10 06:20:05;;;;;;;6.30;5.30;;;;;;;24.45;63.08;100527.34;2653798;89;21043;-62
2021/06/10 06:24:08;;;;;;;8.95;5.45;;;;;;;24.24;62.57;100529.27;2653835;89;21016;-61
2021/06/10 06:28:10;;;;;;;5.42;4.92;;;;;;;23.99;63.73;100533.95;2653648;89;21039;-62
2021/06/10 06:32:11;;;;;;;7.97;5.28;;;;;;;24.02;66.02;100529.99;2653769;89;21061;-62
2021/06/10 06:36:13;;;;;;;7.50;5.37;;;;;;;24.63;64.21;100533.46;2653825;89;21029;-61
2021/06/10 06:40:17;;;;;;;5.97;4.65;;;;;;;25.14;63.17;100533.73;2653687;88;21055;-61
2021/06/10 06:44:19;;;;;;;4.50;4.10;;;;;;;25.51;62.75;100530.72;2654144;89;21091;-62
2021/06/10 06:48:24;;;;;;;6.60;4.87;;;;;;;26.13;60.14;100527.84;2664701;89;21060;-61
2021/06/10 06:52:26;;;;;;;4.10;3.70;;;;;;;26.23;60.31;100521.38;2670068;89;21067;-63
2021/06/10 06:56:28;;;;;;;5.53;3.87;;;;;;;26.51;60.05;100522.78;2670533;88;21066;-62
2021/06/10 07:00:30;;;;;;;7.05;4.87;;;;;;;26.86;57.64;100523.28;2670736;89;21083;-62
2021/06/10 07:04:33;;;;;;;6.97;3.40;;;;;;;27.27;55.79;100524.94;2670515;89;21601;-63
2021/06/10 07:08:34;;;;;;;5.08;4.17;;;;;;;27.64;55.08;100526.21;2671096;89;20996;-63
2021/06/10 07:12:36;;;;;;;4.45;3.08;;;;;;;27.94;54.88;100519.86;2671172;89;21071;-63
2021/06/10 07:16:38;;;;;;;9.53;3.58;;;;;;;28.31;52.44;100521.55;2642085;89;21135;-62
2021/06/10 07:20:39;;;;;;;6.20;3.08;;;;;;;28.49;52.32;100521.94;2671297;89;21091;-62
2021/06/10 07:24:46;;;;;;;3.75;2.60;;;;;;;28.73;52.00;100523.29;2672038;89;21058;-62
2021/06/10 07:28:45;;;;;;;4.17;2.80;;;;;;;28.91;49.29;100523.16;2671512;89;21082;-63
2021/06/10 07:32:46;;;;;;;3.15;2.17;;;;;;;28.98;48.44;100527.64;2671921;89;21092;-62
2021/06/10 07:36:48;;;;;;;3.27;2.85;;;;;;;29.00;48.70;100530.45;2671683;89;21067;-63
2021/06/10 07:40:50;;;;;;;2.15;1.72;;;;;;;29.26;48.69;100536.94;2671701;89;21043;-62
2021/06/10 07:44:52;;;;;;;2.98;1.70;;;;;;;29.59;48.89;100535.37;2672051;89;22246;-62
2021/06/10 07:48:55;;;;;;;2.40;2.20;;;;;;;30.00;46.98;100536.06;2660148;88;21104;-62
2021/06/10 07:52:57;;;;;;;2.72;1.98;;;;;;;30.05;46.31;100538.91;2656255;89;21135;-62
2021/06/10 07:57:00;;;;;;;3.47;1.70;;;;;;;30.08;48.27;100501.12;2656325;89;21016;-63
2021/06/10 08:01:03;;;;;;;2.83;2.12;;;;;;;30.11;47.05;100521.99;2656090;89;21051;-63
2021/06/10 08:05:07;;;;;;;2.67;1.87;;;;;;;29.87;46.77;100539.13;2655901;89;21071;-62
2021/06/10 08:09:09;;;;;;;3.98;2.00;;;;;;;29.32;46.55;100532.68;2655780;89;21060;-62
2021/06/10 08:13:11;;;;;;;2.58;1.98;;;;;;;29.28;47.31;100544.36;2655988;89;21529;-63
2021/06/10 08:17:13;;;;;;;2.58;1.85;;;;;;;29.26;48.33;100553.37;2655872;89;21068;-62
2021/06/10 08:21:15;;;;;;;6.35;3.62;;;;;;;29.07;48.50;100556.30;2655678;89;21036;-63
2021/06/10 08:25:16;;;;;;;5.00;2.92;;;;;;;28.34;49.79;100572.52;2655475;89;21040;-62
2021/06/10 08:29:18;;;;;;;3.67;3.05;;;;;;;27.18;52.08;100568.95;2654606;89;21061;-62
2021/06/10 08:33:20;;;;;;;4.17;3.75;;;;;;;26.32;54.33;100563.36;2654700;89;21004;-63
2021/06/10 08:37:23;;;;;;;5.12;3.20;;;;;;;25.56;55.89;100562.75;2654301;89;21092;-62
2021/06/10 08:41:27;;;;;;;6.50;4.83;;;;;;;25.00;58.26;100565.08;2653846;89;21064;-62
2021/06/10 08:45:30;;;;;;;7.95;4.10;;;;;;;24.66;58.24;100566.52;2653794;88;21143;-63
2021/06/10 08:49:32;;;;;;;7.22;5.37;;;;;;;24.43;58.76;100579.73;2666780;89;21080;-61
2021/06/10 08:53:34;;;;;;;6.33;4.58;;;;;;;24.31;59.36;100576.28;2669742;89;21031;-61
2021/06/10 08:57:36;;;;;;;8.08;4.62;;;;;;;24.43;58.83;100571.04;2669893;89;21071;-61
2021/06/10 09:01:38;;;;;;;5.78;5.15;;;;;;;24.40;58.95;100564.67;2669727;89;21322;-61
2021/06/10 09:05:42;;;;;;;5.67;5.17;;;;;;;24.30;58.70;100562.37;2669726;89;21353;-62
2021/06/10 09:09:45;;;;;;;6.53;4.87;;;;;;;24.22;59.58;100572.94;2669664;88;21062;-62
2021/06/10 09:13:51;;;;;;;5.05;4.03;;;;;;;24.19;58.87;100572.55;2669680;89;21544;-61
2021/06/10 09:17:55;;;;;;;5.67;5.10;;;;;;;24.04;59.60;100574.94;2669583;89;21079;-62
2021/06/10 09:22:00;;;;;;;5.20;4.20;;;;;;;23.94;59.52;100576.67;2669390;89;21071;-61
2021/06/10 09:26:05;;;;;;;4.50;4.10;;;;;;;23.93;60.04;100578.23;2669796;89;21043;-62
2021/06/10 09:30:09;;;;;;;7.10;4.37;;;;;;;23.95;61.15;100577.49;2669815;89;21067;-62
2021/06/10 09:34:16;;;;;;;5.15;4.28;;;;;;;24.10;59.51;100566.48;2669739;89;21075;-62
2021/06/10 09:38:21;;;;;;;6.30;4.05;;;;;;;24.49;60.94;100565.29;2669515;89;21059;-62
2021/06/10 09:42:26;;;;;;;;;;;;;;;24.97;57.98;100565.52;2672194;89;21596;-62
2021/06/10 09:46:27;;;;;;;10.00;4.53;;;;;;;25.18;56.25;100558.10;2670085;89;20111;-61
2021/06/10 09:50:45;;;;;;;4.45;3.83;;;;;;;25.24;55.87;100562.67;2653794;88;21056;-63
2021/06/10 09:54:52;;;;;;;4.22;3.02;;;;;;;25.29;55.50;100555.22;2654079;89;21135;-62
2021/06/10 09:58:55;;;;;;;5.80;3.98;;;;;;;25.38;55.32;100557.47;2654116;88;21119;-62
2021/06/10 10:02:57;;;;;;;8.68;3.72;;;;;;;25.33;55.87;100553.22;2654067;89;21072;-62
2021/06/10 10:06:58;;;;;;;5.60;3.40;;;;;;;25.49;56.26;100551.89;2653931;89;21096;-63
2021/06/10 10:11:03;;;;;;;3.67;2.90;;;;;;;25.76;55.76;100557.19;2654030;89;21127;-63
2021/06/10 10:15:07;;;;;;;4.03;3.62;;;;;;;25.79;55.46;100554.02;2653861;89;21541;-62
2021/06/10 10:19:11;;;;;;;4.45;3.45;;;;;;;25.88;55.89;100557.81;2654310;89;21107;-61
2021/06/10 10:23:15;;;;;;;3.37;2.62;;;;;;;25.96;56.72;100554.84;2654248;89;21035;-62
2021/06/10 10:27:17;;;;;;;3.70;3.15;;;;;;;25.98;55.17;100560.89;2654216;89;21079;-62
2021/06/10 10:31:19;;;;;;;5.03;2.98;;;;;;;25.94;54.55;100567.82;2654102;89;21036;-61
2021/06/10 10:35:26;;;;;;;5.75;2.70;;;;;;;25.86;54.44;100577.64;2650467;89;21100;-61
2021/06/10 10:39:33;;;;;;;4.55;2.60;;;;;;;25.82;54.49;100590.86;2668938;89;21047;-62
2021/06/10 10:43:35;;;;;;;2.60;2.40;;;;;;;25.76;53.90;100580.85;2668338;89;21091;-62
2021/06/10 10:48:00;;;;;;;5.33;3.45;;;;;;;25.79;54.79;100597.60;2666049;89;21136;-62
2021/06/10 10:52:37;;;;;;;7.47;4.33;;;;;;;25.83;53.83;100582.99;2657373;89;21083;-62
2021/06/10 10:56:39;;;;;;;4.53;4.12;;;;;;;25.89;53.43;100570.38;2656682;89;21080;-63
2021/06/10 11:00:56;;;;;;;4.05;3.40;;;;;;;25.93;54.30;100570.24;2657506;89;21069;-61
2021/06/10 11:05:00;;;;;;;4.45;4.05;;;;;;;25.99;55.19;100569.37;2657807;89;21047;-63
2021/06/10 11:09:20;;;;;;;6.08;4.10;;;;;;;26.23;56.30;100558.17;2657658;89;21079;-62
2021/06/10 11:13:29;;;;;;;58.60;33.30;;;;;;;26.50;55.54;100553.00;2657613;89;21476;-62
2021/06/10 11:17:46;;;;;;;35.25;20.08;;;;;;;26.48;54.32;100546.94;2657947;89;21081;-63
2021/06/10 11:21:50;;;;;;;17.27;11.28;;;;;;;26.53;55.54;100547.12;2658015;89;21115;-62
2021/06/10 11:25:53;;;;;;;5.75;3.85;;;;;;;26.60;53.66;100542.93;2658352;89;21032;-62
2021/06/10 11:30:16;;;;;;;2.47;2.27;;;;;;;26.38;53.41;100540.64;2658322;89;21060;-63
2021/06/10 11:34:37;;;;;;;19.80;15.90;;;;;;;26.48;52.81;100538.24;2657859;89;21115;-62
2021/06/10 11:38:48;;;;;;;4.40;3.83;;;;;;;26.73;53.96;100526.97;2658168;89;21072;-62
2021/06/10 11:42:51;;;;;;;3.77;3.45;;;;;;;27.06;55.14;100524.38;2658081;89;21071;-62
2021/06/10 11:46:52;;;;;;;14.95;4.20;;;;;;;27.17;53.63;100516.78;2658126;89;21079;-62
2021/06/10 11:50:54;;;;;;;5.97;2.80;;;;;;;27.35;53.86;100510.42;2680445;88;21076;-63
2021/06/10 11:55:10;;;;;;;4.28;3.65;;;;;;;27.55;54.38;100509.88;2682083;88;21569;-62
2021/06/10 11:59:19;;;;;;;3.98;3.17;;;;;;;27.65;54.48;100494.57;2678196;88;21097;-61
2021/06/10 12:03:21;;;;;;;4.67;3.12;;;;;;;27.69;53.08;100481.25;2681974;88;21075;-62
2021/06/10 12:07:23;;;;;;;3.80;3.40;;;;;;;27.64;53.36;100483.86;2682183;88;21098;-62
2021/06/10 12:11:25;;;;;;;6.25;3.80;;;;;;;27.77;53.96;100467.78;2682260;88;21059;-62
2021/06/10 12:15:33;;;;;;;13.08;3.35;;;;;;;27.86;53.27;100463.64;2681565;88;21039;-63
2021/06/10 12:19:35;;;;;;;2.50;2.30;;;;;;;27.97;54.61;100466.59;2644955;90;21064;-63
2021/06/10 12:23:44;;;;;;;3.33;3.02;;;;;;;28.09;53.44;100458.69;2645381;90;21052;-62
2021/06/10 12:27:47;;;;;;;9.90;4.00;;;;;;;27.97;51.68;100456.52;2645248;89;21028;-61
2021/06/10 12:31:49;;;;;;;3.58;2.80;;;;;;;27.98;50.97;100443.14;2645355;90;21068;-63
2021/06/10 12:35:57;;;;;;;4.97;2.83;;;;;;;28.11;52.06;100442.61;2679758;89;21086;-62
2021/06/10 12:40:00;;;;;;;4.47;3.60;;;;;;;28.28;54.06;100443.54;2645117;90;21510;-62
2021/06/10 12:44:24;;;;;;;3.17;2.87;;;;;;;28.36;51.80;100439.08;2679399;89;21205;-63
2021/06/10 12:48:29;;;;;;;13.65;3.35;;;;;;;28.46;53.28;100438.47;2631919;90;21037;-62
2021/06/10 12:52:34;;;;;;;3.20;2.35;;;;;;;28.61;52.46;100436.57;2634508;89;21067;-62
2021/06/10 12:56:49;;;;;;;2.45;1.87;;;;;;;28.69;52.47;100433.99;2633289;90;21616;-63
2021/06/10 13:00:51;;;;;;;4.30;2.23;;;;;;;28.78;51.81;100433.88;2632980;89;21034;-62
2021/06/10 13:04:59;;;;;;;2.35;2.17;;;;;;;28.86;51.68;100430.52;2633089;90;21030;-62
2021/06/10 13:09:04;;;;;;;2.27;2.08;;;;;;;28.87;51.26;100435.72;2633149;89;21078;-62
2021/06/10 13:13:09;;;;;;;2.42;2.22;;;;;;;28.82;51.05;100431.53;2629089;90;21660;-62
2021/06/10 13:17:12;;;;;;;1.98;1.87;;;;;;;28.98;50.08;100427.72;2633186;90;21551;-62
2021/06/10 13:21:18;;;;;;;2.30;2.10;;;;;;;29.14;49.67;100428.81;2673127;88;21067;-62
2021/06/10 13:25:22;;;;;;;3.52;2.10;;;;;;;29.24;49.80;100421.31;2672512;88;21063;-61
2021/06/10 13:29:23;;;;;;;2.33;1.85;;;;;;;29.19;50.84;100392.77;2639673;88;21133;-62
2021/06/10 13:33:26;;;;;;;8.60;2.50;;;;;;;29.40;48.33;100404.06;2630687;90;21126;-61
2021/06/10 13:37:28;;;;;;;5.62;2.45;;;;;;;29.45;49.17;100393.21;2630919;90;21041;-63
2021/06/10 13:41:32;;;;;;;2.58;2.27;;;;;;;29.45;49.17;100393.21;2630866;90;21093;-63
2021/06/10 13:45:34;;;;;;;2.25;2.10;;;;;;;29.55;50.30;100398.02;2631141;90;21064;-64
2021/06/10 13:49:36;;;;;;;3.65;2.45;;;;;;;29.53;49.81;100369.23;2630997;90;21044;-63
2021/06/10 13:53:42;;;;;;;2.47;2.27;;;;;;;29.68;49.46;100380.43;2631587;90;21025;-62
2021/06/10 13:57:43;;;;;;;2.40;1.75;;;;;;;29.75;50.45;100368.73;2690712;88;21026;-62
2021/06/10 14:01:45;;;;;;;2.47;2.27;;;;;;;29.47;48.62;100366.39;2690760;88;21096;-63
2021/06/10 14:05:49;;;;;;;4.72;2.42;;;;;;;28.86;50.25;100368.38;2690597;87;21072;-63
2021/06/10 14:09:52;;;;;;;3.85;2.52;;;;;;;28.13;51.56;100385.78;2691498;87;21076;-63
2021/06/10 14:13:54;;;;;;;5.05;2.47;;;;;;;27.62;53.05;100424.53;2684010;87;21029;-61
2021/06/10 14:17:57;;;;;;;8.78;3.95;;;;;;;27.21;56.12;100438.80;2678024;89;21044;-60
2021/06/10 14:21:59;;;;;;;6.97;3.20;;;;;;;26.59;62.37;100439.83;2678407;88;21063;-63
2021/06/10 14:26:01;;;;;;;7.08;3.33;;;;;;;25.62;62.39;100443.39;2678769;89;21037;-61
2021/06/10 14:34:26;;;;;;;7.62;4.60;;;;;;;24.02;68.45;100415.38;2677372;88;21079;-61
2021/06/10 14:38:28;;;;;;;12.95;4.55;;;;;;;23.70;73.26;100393.45;2676963;88;21044;-58
2021/06/10 14:42:30;;;;;;;6.87;4.30;;;;;;;23.74;78.19;100396.05;2676942;89;21941;-59
2021/06/10 14:46:31;;;;;;;4.60;4.08;;;;;;;23.93;83.88;100403.02;2677248;88;21076;-60
2021/06/10 14:50:33;;;;;;;4.70;3.67;;;;;;;24.19;83.96;100399.45;2690474;87;21930;-59
2021/06/10 14:54:37;;;;;;;3.10;2.70;;;;;;;24.45;80.25;100401.75;2710105;86;21599;-58
2021/06/10 14:58:39;;;;;;;3.17;2.87;;;;;;;24.75;78.01;100397.64;2713918;87;21433;-60
2021/06/10 15:02:43;;;;;;;2.50;2.27;;;;;;;24.84;71.82;100390.94;2714480;87;20999;-59
2021/06/10 15:06:44;;;;;;;3.52;3.12;;;;;;;25.09;73.59;100367.02;2706474;87;21059;-59
2021/06/10 15:10:46;;;;;;;3.40;2.62;;;;;;;25.29;74.64;100366.03;2713684;87;21056;-59
2021/06/10 15:14:48;;;;;;;3.05;2.75;;;;;;;25.26;72.50;100367.33;2713801;87;21079;-60
2021/06/10 15:18:50;;;;;;;4.53;3.62;;;;;;;25.00;73.60;100362.91;2649024;90;21148;-60
2021/06/10 15:22:53;;;;;;;3.22;2.92;;;;;;;24.76;73.30;100362.63;2626507;90;21099;-60
2021/06/10 15:26:54;;;;;;;8.73;3.20;;;;;;;24.42;75.30;100356.52;2654831;89;21076;-60
2021/06/10 15:30:57;;;;;;;9.60;4.22;;;;;;;24.11;74.79;100357.58;2713832;87;21043;-60
2021/06/10 15:34:58;;;;;;;5.00;3.87;;;;;;;23.88;74.22;100356.14;2648084;89;21067;-61
2021/06/10 15:39:04;;;;;;;5.87;3.80;;;;;;;23.65;74.21;100357.41;2652003;89;21064;-61
2021/06/10 15:43:06;;;;;;;5.37;4.00;;;;;;;23.46;74.42;100354.20;2651478;89;21028;-61
2021/06/10 15:47:08;;;;;;;4.78;3.87;;;;;;;23.31;76.07;100361.20;2650811;89;21084;-62
2021/06/10 15:51:10;;;;;;;4.37;3.85;;;;;;;23.23;77.50;100367.63;2628693;87;21059;-61
2021/06/10 15:55:12;;;;;;;5.72;5.12;;;;;;;23.11;76.19;100361.48;2626771;90;21164;-62
2021/06/10 15:59:14;;;;;;;8.35;4.15;;;;;;;23.08;77.21;100370.55;2626487;90;21095;-61
2021/06/10 16:03:16;;;;;;;5.12;3.95;;;;;;;23.03;78.62;100367.09;2626873;89;21635;-61
2021/06/10 16:07:19;;;;;;;6.30;4.50;;;;;;;23.01;79.34;100362.94;2626206;90;21072;-61
2021/06/10 16:11:21;;;;;;;3.33;3.02;;;;;;;23.03;79.74;100365.73;2626775;90;21533;-61
2021/06/10 16:15:22;;;;;;;5.42;4.33;;;;;;;23.02;79.34;100360.53;2653315;87;21068;-62
2021/06/10 16:19:24;;;;;;;4.85;4.42;;;;;;;23.02;79.60;100360.00;2668309;89;21070;-62
2021/06/10 16:23:26;;;;;;;4.20;3.80;;;;;;;23.02;79.96;100355.11;2668339;89;21099;-62
2021/06/10 16:27:28;;;;;;;3.83;3.50;;;;;;;23.06;80.10;100348.22;2668357;89;21350;-62
2021/06/10 16:31:30;;;;;;;6.65;4.37;;;;;;;23.08;79.09;100339.35;2667771;89;21059;-62
2021/06/10 16:35:32;;;;;;;3.83;3.30;;;;;;;23.04;77.37;100342.17;2668313;89;21083;-62
2021/06/10 16:39:33;;;;;;;8.83;6.85;;;;;;;23.04;78.56;100336.75;2669434;87;21048;-61
2021/06/10 16:43:35;;;;;;;4.83;3.42;;;;;;;23.00;76.43;100336.86;2669302;89;21118;-61
2021/06/10 16:47:37;;;;;;;5.85;5.22;;;;;;;22.91;78.35;100342.45;2654252;87;21089;-62
2021/06/10 16:51:39;;;;;;;5.12;3.90;;;;;;;22.88;79.59;100341.52;2641678;89;21056;-62
2021/06/10 16:55:41;;;;;;;19.37;13.68;;;;;;;22.80;79.47;100334.95;2634698;90;21101;-62
2021/06/10 16:59:43;;;;;;;13.18;8.68;;;;;;;22.70;79.54;100329.07;2683416;88;21051;-61
2021/06/10 17:04:02;;;;;;;5.53;4.05;;;;;;;22.66;78.65;100328.13;2614169;91;21068;-63
2021/06/10 17:08:05;;;;;;;5.47;3.67;;;;;;;22.73;79.35;100330.02;2703755;88;21373;-61
2021/06/10 17:12:07;;;;;;;7.65;5.25;;;;;;;22.86;78.94;100330.05;2614437;90;21056;-61
2021/06/10 17:16:09;;;;;;;10.58;5.58;;;;;;;22.94;78.66;100325.77;2699610;88;21040;-62
2021/06/10 17:20:14;;;;;;;12.07;6.58;;;;;;;23.02;78.63;100324.73;2637611;90;21076;-62
2021/06/10 17:24:16;;;;;;;8.77;6.60;;;;;;;23.09;78.65;100314.74;2637848;90;21031;-62
2021/06/10 17:28:17;;;;;;;9.35;4.95;;;;;;;23.14;77.76;100310.56;2662459;88;21781;-61
2021/06/10 17:32:19;;;;;;;6.17;4.55;;;;;;;23.13;78.33;100308.89;2668941;89;21068;-63
2021/06/10 17:36:21;;;;;;;5.97;3.95;;;;;;;23.10;77.44;100318.27;2668709;89;21045;-62
2021/06/10 17:40:22;;;;;;;3.80;3.40;;;;;;;23.02;77.71;100311.17;2668130;89;21025;-62
2021/06/10 17:44:24;;;;;;;7.35;4.22;;;;;;;23.03;78.71;100314.20;2668632;89;21101;-63
2021/06/10 17:48:28;;;;;;;7.28;5.70;;;;;;;23.00;78.10;100319.23;2649092;89;21639;-63
2021/06/10 17:52:29;;;;;;;13.53;10.58;;;;;;;22.90;78.07;100323.16;2635923;89;21079;-63
2021/06/10 17:56:31;;;;;;;14.18;12.37;;;;;;;22.91;79.39;100321.30;2636089;90;21062;-63
2021/06/10 18:00:35;;;;;;;11.63;10.23;;;;;;;22.98;79.36;100326.20;2635470;90;21062;-62
2021/06/10 18:04:37;;;;;;;17.98;15.38;;;;;;;23.06;79.58;100320.56;2657960;87;21092;-64
2021/06/10 18:08:39;;;;;;;14.60;11.43;;;;;;;23.09;79.41;100318.81;2692492;88;21051;-63
2021/06/10 18:12:41;;;;;;;10.95;8.55;;;;;;;23.14;79.00;100319.52;2692133;88;21068;-63
2021/06/10 18:16:43;;;;;;;11.50;7.80;;;;;;;23.20;79.03;100322.78;2701918;87;21050;-63
2021/06/10 18:20:45;;;;;;;14.45;11.28;;;;;;;23.25;78.47;100323.48;2704551;87;21003;-63
2021/06/10 18:24:54;;;;;;;13.22;7.83;;;;;;;23.07;76.92;100318.70;2714025;87;21026;-63
2021/06/10 18:28:56;;;;;;;17.57;11.95;;;;;;;22.78;76.92;100327.52;2677135;87;21028;-63
2021/06/10 18:33:19;;;;;;;24.20;16.15;;;;;;;22.50;78.38;100329.85;2717132;86;21085;-62
2021/06/10 18:37:32;;;;;;;24.95;18.62;;;;;;;22.26;79.18;100340.16;2678837;86;21084;-61
2021/06/10 18:41:45;;;;;;;30.15;17.55;;;;;;;22.11;79.63;100338.96;2698530;87;21513;-62
2021/06/10 18:46:03;;;;;;;35.38;23.20;;;;;;;22.03;80.14;100335.05;2708053;86;21046;-62
2021/06/10 18:55:01;;;;;;;47.98;26.50;;;;;;;22.11;80.32;100338.42;2695371;86;21059;-62
2021/06/10 18:59:05;;;;;;;40.92;23.90;;;;;;;22.09;80.19;100340.50;2730297;87;21572;-61
2021/06/10 19:03:07;;;;;;;31.37;21.07;;;;;;;22.00;80.26;100351.17;2693325;87;21033;-61